createdAt,value
2018-07-11T00:01:46.488Z,100364
2018-07-11T00:04:15.332Z,100360
2018-07-11T00:06:44.188Z,100352
2018-07-11T00:09:13.060Z,100355
2018-07-11T00:11:41.861Z,100353
2018-07-11T00:14:10.713Z,100357
2018-07-11T00:16:40.293Z,100352
2018-07-11T00:19:09.131Z,100358
2018-07-11T00:21:37.974Z,100362
2018-07-11T00:24:06.809Z,100367
2018-07-11T00:26:35.645Z,100363
2018-07-11T00:29:04.471Z,100367
2018-07-11T00:31:33.303Z,100370
2018-07-11T00:34:02.143Z,100379
2018-07-11T00:36:30.989Z,100375
2018-07-11T00:38:59.835Z,100372
2018-07-11T00:41:29.431Z,100365
2018-07-11T00:43:58.279Z,100362
2018-07-11T00:46:27.135Z,100365
2018-07-11T00:48:56.019Z,100364
2018-07-11T00:51:24.859Z,100366
2018-07-11T00:53:53.689Z,100365
2018-07-11T00:56:23.410Z,100358
2018-07-11T00:58:52.108Z,100354
2018-07-11T01:01:20.950Z,100357
2018-07-11T01:03:49.796Z,100358
2018-07-11T01:06:18.635Z,100360
2018-07-11T01:08:47.471Z,100360
2018-07-11T01:11:16.317Z,100361
2018-07-11T01:13:45.157Z,100367
2018-07-11T01:16:14.022Z,100369
2018-07-11T01:18:43.624Z,100367
2018-07-11T01:21:12.469Z,100366
2018-07-11T01:23:41.311Z,100379
2018-07-11T01:26:10.891Z,100389
2018-07-11T01:28:39.722Z,100386
2018-07-11T01:31:08.567Z,100384
2018-07-11T01:33:37.417Z,100380
2018-07-11T01:36:06.258Z,100376
2018-07-11T01:38:35.097Z,100382
2018-07-11T01:41:03.934Z,100375
2018-07-11T01:43:32.765Z,100377
2018-07-11T01:46:01.606Z,100376
2018-07-11T01:48:30.432Z,100372
2018-07-11T01:50:59.279Z,100374
2018-07-11T01:53:28.109Z,100375
2018-07-11T01:55:56.957Z,100378
2018-07-11T01:58:25.787Z,100373
2018-07-11T02:00:54.636Z,100367
2018-07-11T02:03:23.500Z,100372
2018-07-11T02:05:52.347Z,100367
2018-07-11T02:08:21.190Z,100369
2018-07-11T02:10:50.026Z,100364
2018-07-11T02:13:18.881Z,100372
2018-07-11T02:15:47.722Z,100373
2018-07-11T02:18:17.293Z,100369
2018-07-11T02:20:46.133Z,100374
2018-07-11T02:23:15.723Z,100368
2018-07-11T02:25:44.599Z,100374
2018-07-11T02:28:13.405Z,100377
2018-07-11T02:30:42.241Z,100381
2018-07-11T02:33:11.078Z,100383
2018-07-11T02:35:39.921Z,100386
2018-07-11T02:38:08.771Z,100384
2018-07-11T02:40:37.607Z,100381
2018-07-11T02:43:06.450Z,100389
2018-07-11T02:45:35.288Z,100386
2018-07-11T02:48:04.152Z,100380
2018-07-11T02:50:32.990Z,100388
2018-07-11T02:53:01.822Z,100383
2018-07-11T02:55:30.668Z,100386
2018-07-11T02:57:59.516Z,100386
2018-07-11T03:00:28.358Z,100384
2018-07-11T03:02:57.193Z,100384
2018-07-11T03:05:26.035Z,100380
2018-07-11T03:07:54.871Z,100387
2018-07-11T03:10:23.728Z,100385
2018-07-11T03:12:52.587Z,100389
2018-07-11T03:15:21.431Z,100383
2018-07-11T03:17:51.011Z,100389
2018-07-11T03:20:19.849Z,100393
2018-07-11T03:22:48.688Z,100394
2018-07-11T03:27:46.355Z,100401
2018-07-11T03:30:15.187Z,100398
2018-07-11T03:32:44.021Z,100398
2018-07-11T03:35:12.858Z,100399
2018-07-11T03:37:41.694Z,100401
2018-07-11T03:40:10.526Z,100408
2018-07-11T03:42:39.367Z,100414
2018-07-11T03:45:08.207Z,100420
2018-07-11T03:47:37.046Z,100411
2018-07-11T03:50:05.880Z,100410
2018-07-11T03:52:34.721Z,100405
2018-07-11T03:55:03.557Z,100408
2018-07-11T03:57:32.387Z,100411
2018-07-11T04:00:01.228Z,100412
2018-07-11T04:02:30.060Z,100410
2018-07-11T04:04:58.902Z,100414
2018-07-11T04:07:27.730Z,100416
2018-07-11T04:09:56.574Z,100415
2018-07-11T04:12:25.413Z,100413
2018-07-11T04:14:55.002Z,100418
2018-07-11T04:17:23.841Z,100421
2018-07-11T04:19:52.675Z,100427
2018-07-11T04:22:21.540Z,100420
2018-07-11T04:24:50.377Z,100421
2018-07-11T04:27:19.214Z,100424
2018-07-11T04:29:48.051Z,100433
2018-07-11T04:32:16.881Z,100431
2018-07-11T04:34:46.470Z,100434
2018-07-11T04:37:15.303Z,100433
2018-07-11T04:39:44.148Z,100444
2018-07-11T04:42:13.803Z,100440
2018-07-11T04:44:42.575Z,100444
2018-07-11T04:47:11.412Z,100430
2018-07-11T04:49:40.249Z,100434
2018-07-11T04:52:09.107Z,100434
2018-07-11T04:54:37.981Z,100436
2018-07-11T04:57:06.820Z,100438
2018-07-11T04:59:35.666Z,100437
2018-07-11T05:02:04.498Z,100447
2018-07-11T05:04:34.077Z,100441
2018-07-11T05:07:02.907Z,100449
2018-07-11T05:09:32.485Z,100453
2018-07-11T05:12:01.309Z,100459
2018-07-11T05:14:30.883Z,100450
2018-07-11T05:16:59.717Z,100462
2018-07-11T05:19:29.295Z,100456
2018-07-11T05:21:58.139Z,100450
2018-07-11T05:24:26.982Z,100455
2018-07-11T05:26:55.817Z,100463
2018-07-11T05:29:25.396Z,100463
2018-07-11T05:31:54.235Z,100456
2018-07-11T05:34:23.075Z,100457
2018-07-11T05:36:51.902Z,100462
2018-07-11T05:39:20.750Z,100452
2018-07-11T05:41:49.604Z,100458
2018-07-11T05:44:18.450Z,100460
2018-07-11T05:46:47.294Z,100466
2018-07-11T05:49:16.136Z,100464
2018-07-11T05:51:44.971Z,100469
2018-07-11T05:54:13.813Z,100470
2018-07-11T05:56:42.656Z,100477
2018-07-11T05:59:11.502Z,100469
2018-07-11T06:01:40.356Z,100464
2018-07-11T06:04:09.191Z,100459
2018-07-11T06:06:38.051Z,100467
2018-07-11T06:09:06.910Z,100470
2018-07-11T06:11:35.745Z,100463
2018-07-11T06:14:04.592Z,100484
2018-07-11T06:16:33.432Z,100477
2018-07-11T06:19:02.281Z,100473
2018-07-11T06:21:31.224Z,100467
2018-07-11T06:24:00.017Z,100470
2018-07-11T06:26:29.602Z,100475
2018-07-11T06:28:58.433Z,100470
2018-07-11T06:31:27.280Z,100470
2018-07-11T06:33:56.152Z,100470
2018-07-11T06:36:24.989Z,100480
2018-07-11T06:38:53.831Z,100474
2018-07-11T06:41:22.662Z,100485
2018-07-11T06:43:51.511Z,100483
2018-07-11T06:46:20.344Z,100489
2018-07-11T06:48:49.198Z,100489
2018-07-11T06:51:18.044Z,100498
2018-07-11T06:53:46.889Z,100495
2018-07-11T06:56:16.503Z,100495
2018-07-11T06:58:45.335Z,100498
2018-07-11T07:01:14.198Z,100500
2018-07-11T07:03:43.783Z,100503
2018-07-11T07:06:12.631Z,100508
2018-07-11T07:08:41.485Z,100500
2018-07-11T07:11:10.329Z,100498
2018-07-11T07:13:39.158Z,100495
2018-07-11T07:16:08.024Z,100490
2018-07-11T07:18:36.851Z,100495
2018-07-11T07:21:05.688Z,100500
2018-07-11T07:23:34.612Z,100501
2018-07-11T07:26:03.463Z,100492
2018-07-11T07:28:32.291Z,100496
2018-07-11T07:31:01.126Z,100501
2018-07-11T07:33:30.013Z,100501
2018-07-11T07:35:59.769Z,100507
2018-07-11T07:38:28.615Z,100506
2018-07-11T07:40:57.455Z,100509
2018-07-11T07:43:26.287Z,100511
2018-07-11T07:45:55.139Z,100507
2018-07-11T07:48:23.978Z,100508
2018-07-11T07:50:53.555Z,100513
2018-07-11T07:53:22.414Z,100521
2018-07-11T07:55:51.250Z,100511
2018-07-11T07:58:20.822Z,100504
2018-07-11T08:00:49.661Z,100498
2018-07-11T08:03:19.247Z,100500
2018-07-11T08:05:48.092Z,100501
2018-07-11T08:08:16.933Z,100505
2018-07-11T08:10:45.792Z,100506
2018-07-11T08:13:14.627Z,100498
2018-07-11T08:15:43.471Z,100501
2018-07-11T08:18:12.320Z,100497
2018-07-11T08:20:41.158Z,100490
2018-07-11T08:23:21.931Z,100497
2018-07-11T08:26:04.373Z,100504
2018-07-11T08:28:33.223Z,100496
2018-07-11T08:31:02.067Z,100506
2018-07-11T08:33:30.906Z,100501
2018-07-11T08:35:59.748Z,100506
2018-07-11T08:38:28.578Z,100512
2018-07-11T08:40:57.418Z,100510
2018-07-11T08:43:26.263Z,100512
2018-07-11T08:45:55.112Z,100509
2018-07-11T08:48:24.022Z,100519
2018-07-11T08:50:52.794Z,100531
2018-07-11T08:53:21.631Z,100528
2018-07-11T08:55:51.213Z,100530
2018-07-11T08:58:20.046Z,100533
2018-07-11T09:00:48.892Z,100534
2018-07-11T09:03:17.724Z,100536
2018-07-11T09:05:46.566Z,100535
2018-07-11T09:08:15.414Z,100539
2018-07-11T09:10:44.266Z,100531
2018-07-11T09:13:13.089Z,100532
2018-07-11T09:15:41.942Z,100531
2018-07-11T09:18:10.786Z,100534
2018-07-11T09:20:39.627Z,100526
2018-07-11T09:23:09.201Z,100535
2018-07-11T09:25:38.063Z,100534
2018-07-11T09:28:06.896Z,100529
2018-07-11T09:30:35.814Z,100536
2018-07-11T09:33:04.585Z,100535
2018-07-11T09:35:33.438Z,100540
2018-07-11T09:38:02.267Z,100538
2018-07-11T09:40:31.875Z,100538
2018-07-11T09:43:00.699Z,100539
2018-07-11T09:45:29.594Z,100537
2018-07-11T09:47:58.377Z,100541
2018-07-11T09:50:27.969Z,100545
2018-07-11T09:52:56.815Z,100541
2018-07-11T09:55:25.664Z,100549
2018-07-11T09:57:54.508Z,100554
2018-07-11T10:00:23.346Z,100549
2018-07-11T10:02:52.210Z,100551
2018-07-11T10:05:21.054Z,100553
2018-07-11T10:07:49.902Z,100559
2018-07-11T10:10:18.753Z,100558
2018-07-11T10:12:47.597Z,100554
2018-07-11T10:15:16.442Z,100556
2018-07-11T10:17:45.279Z,100556
2018-07-11T10:20:14.861Z,100553
2018-07-11T10:22:43.705Z,100554
2018-07-11T10:25:12.548Z,100561
2018-07-11T10:27:41.382Z,100560
2018-07-11T10:30:10.218Z,100547
2018-07-11T10:32:39.053Z,100557
2018-07-11T10:35:08.634Z,100560
2018-07-11T10:37:37.476Z,100548
2018-07-11T10:40:06.314Z,100547
2018-07-11T10:42:35.163Z,100543
2018-07-11T10:45:04.044Z,100551
2018-07-11T10:47:32.879Z,100545
2018-07-11T10:50:01.718Z,100545
2018-07-11T10:52:30.552Z,100539
2018-07-11T10:54:59.389Z,100544
2018-07-11T10:57:28.241Z,100543
2018-07-11T10:59:57.071Z,100541
2018-07-11T11:02:25.911Z,100539
2018-07-11T11:04:54.815Z,100535
2018-07-11T11:07:23.585Z,100529
2018-07-11T11:09:52.448Z,100517
2018-07-11T11:12:21.281Z,100529
2018-07-11T11:14:50.133Z,100529
2018-07-11T11:17:18.967Z,100529
2018-07-11T11:19:47.800Z,100528
2018-07-11T11:22:16.646Z,100534
2018-07-11T11:24:45.500Z,100529
2018-07-11T11:27:14.343Z,100532
2018-07-11T11:29:43.195Z,100536
2018-07-11T11:32:12.023Z,100531
2018-07-11T11:34:40.871Z,100522
2018-07-11T11:37:10.567Z,100527
2018-07-11T11:39:39.411Z,100523
2018-07-11T11:42:09.365Z,100513
2018-07-11T11:44:37.845Z,100508
2018-07-11T11:47:06.682Z,100517
2018-07-11T11:49:36.334Z,100520
2018-07-11T11:52:05.238Z,100519
2018-07-11T11:54:34.075Z,100527
2018-07-11T11:57:03.652Z,100527
2018-07-11T11:59:32.491Z,100527
2018-07-11T12:02:01.346Z,100518
2018-07-11T12:04:30.186Z,100522
2018-07-11T12:06:59.041Z,100525
2018-07-11T12:09:28.854Z,100521
2018-07-11T12:11:58.434Z,100526
2018-07-11T12:14:27.277Z,100514
2018-07-11T12:16:56.106Z,100519
2018-07-11T12:19:24.941Z,100525
2018-07-11T12:21:53.784Z,100525
2018-07-11T12:24:22.627Z,100520
2018-07-11T12:26:51.466Z,100522
2018-07-11T12:29:20.297Z,100522
2018-07-11T12:31:49.137Z,100514
2018-07-11T12:34:17.976Z,100514
2018-07-11T12:36:46.818Z,100517
2018-07-11T12:39:15.652Z,100517
2018-07-11T12:41:44.508Z,100505
2018-07-11T12:44:13.353Z,100506
2018-07-11T12:46:42.211Z,100499
2018-07-11T12:49:11.053Z,100500
2018-07-11T12:51:39.900Z,100492
2018-07-11T12:54:09.492Z,100499
2018-07-11T12:56:39.087Z,100502
2018-07-11T12:59:07.936Z,100487
2018-07-11T13:01:36.787Z,100494
2018-07-11T13:04:06.391Z,100486
2018-07-11T13:06:35.252Z,100499
2018-07-11T13:09:04.081Z,100497
2018-07-11T13:11:33.674Z,100501
2018-07-11T13:14:02.548Z,100498
2018-07-11T13:16:31.383Z,100488
2018-07-11T13:19:00.199Z,100494
2018-07-11T13:21:29.042Z,100508
2018-07-11T13:23:57.914Z,100492
2018-07-11T13:26:26.763Z,100494
2018-07-11T13:28:55.609Z,100488
2018-07-11T13:31:24.466Z,100488
2018-07-11T13:33:53.308Z,100482
2018-07-11T13:36:22.886Z,100477
2018-07-11T13:38:51.730Z,100476
2018-07-11T13:41:20.570Z,100477
2018-07-11T13:43:49.415Z,100479
2018-07-11T13:46:18.259Z,100479
2018-07-11T13:48:47.113Z,100480
2018-07-11T13:51:15.948Z,100478
2018-07-11T13:53:44.811Z,100491
2018-07-11T13:56:13.649Z,100482
2018-07-11T13:58:42.512Z,100478
2018-07-11T14:01:12.090Z,100482
2018-07-11T14:03:40.943Z,100480
2018-07-11T14:06:09.796Z,100473
2018-07-11T14:08:39.381Z,100480
2018-07-11T14:11:08.221Z,100488
2018-07-11T14:13:37.072Z,100485
2018-07-11T14:16:05.914Z,100492
2018-07-11T14:18:34.756Z,100483
2018-07-11T14:21:03.618Z,100483
2018-07-11T14:23:32.478Z,100482
2018-07-11T14:26:01.319Z,100486
2018-07-11T14:28:30.171Z,100484
2018-07-11T14:30:59.001Z,100486
2018-07-11T14:33:27.840Z,100479
2018-07-11T14:35:56.704Z,100486
2018-07-11T14:38:25.546Z,100481
2018-07-11T14:40:54.386Z,100484
2018-07-11T14:43:24.021Z,100485
2018-07-11T14:45:52.829Z,100487
2018-07-11T14:48:21.701Z,100491
2018-07-11T14:50:50.534Z,100484
2018-07-11T14:53:19.374Z,100490
2018-07-11T14:55:48.228Z,100486
2018-07-11T14:58:17.109Z,100490
2018-07-11T15:00:45.919Z,100492
2018-07-11T15:03:14.751Z,100488
2018-07-11T15:05:43.657Z,100491
2018-07-11T15:08:12.510Z,100493
2018-07-11T15:10:41.317Z,100495
2018-07-11T15:13:10.138Z,100490
2018-07-11T15:15:39.001Z,100500
2018-07-11T15:18:08.262Z,100490
2018-07-11T15:20:37.724Z,100485
2018-07-11T15:23:06.578Z,100490
2018-07-11T15:25:35.421Z,100492
2018-07-11T15:28:04.275Z,100480
2018-07-11T15:30:33.111Z,100486
2018-07-11T15:33:02.554Z,100487
2018-07-11T15:35:32.132Z,100493
2018-07-11T15:38:01.070Z,100490
2018-07-11T15:40:29.824Z,100494
2018-07-11T15:42:58.665Z,100489
2018-07-11T15:45:27.659Z,100496
2018-07-11T15:47:56.372Z,100499
2018-07-11T15:50:25.213Z,100496
2018-07-11T15:52:54.064Z,100498
2018-07-11T15:55:22.909Z,100489
2018-07-11T15:57:51.754Z,100501
2018-07-11T16:00:20.594Z,100499
2018-07-11T16:02:49.429Z,100495
2018-07-11T16:05:18.287Z,100500
2018-07-11T16:07:47.131Z,100489
2018-07-11T16:10:15.988Z,100491
2018-07-11T16:12:44.842Z,100497
2018-07-11T16:15:13.692Z,100484
2018-07-11T16:17:42.538Z,100488
2018-07-11T16:20:11.387Z,100481
2018-07-11T16:22:40.243Z,100491
2018-07-11T16:25:09.130Z,100488
2018-07-11T16:27:38.669Z,100493
2018-07-11T16:30:07.502Z,100499
2018-07-11T16:32:36.338Z,100496
2018-07-11T16:35:05.180Z,100500
2018-07-11T16:37:34.023Z,100496
2018-07-11T16:40:02.864Z,100502
2018-07-11T16:42:31.705Z,100492
2018-07-11T16:45:00.549Z,100494
2018-07-11T16:47:29.385Z,100501
2018-07-11T16:49:58.247Z,100496
2018-07-11T16:52:27.092Z,100500
2018-07-11T16:54:56.109Z,100493
2018-07-11T16:57:24.947Z,100493
2018-07-11T16:59:53.804Z,100505
2018-07-11T17:02:22.645Z,100500
2018-07-11T17:04:51.498Z,100508
2018-07-11T17:07:20.368Z,100507
2018-07-11T17:09:49.219Z,100508
2018-07-11T17:12:18.814Z,100508
2018-07-11T17:14:48.395Z,100500
2018-07-11T17:17:17.259Z,100496
2018-07-11T17:19:46.145Z,100503
2018-07-11T17:22:14.945Z,100506
2018-07-11T17:24:43.779Z,100504
2018-07-11T17:27:12.699Z,100506
2018-07-11T17:29:41.507Z,100505
2018-07-11T17:32:10.345Z,100504
2018-07-11T17:34:39.199Z,100506
2018-07-11T17:37:08.116Z,100503
2018-07-11T17:39:36.902Z,100500
2018-07-11T17:42:05.744Z,100497
2018-07-11T17:44:34.583Z,100500
2018-07-11T17:47:03.663Z,100499
2018-07-11T17:49:32.296Z,100502
2018-07-11T17:52:01.176Z,100507
2018-07-11T17:54:30.781Z,100505
2018-07-11T17:57:00.373Z,100505
2018-07-11T17:59:29.231Z,100502
2018-07-11T18:01:58.077Z,100501
2018-07-11T18:04:26.924Z,100497
2018-07-11T18:06:55.766Z,100502
2018-07-11T18:09:24.608Z,100504
2018-07-11T18:11:53.450Z,100510
2018-07-11T18:14:22.304Z,100510
2018-07-11T18:16:51.917Z,100513
2018-07-11T18:19:21.520Z,100509
2018-07-11T18:21:50.377Z,100512
2018-07-11T18:24:19.209Z,100511
2018-07-11T18:26:47.387Z,100484
2018-07-11T18:29:16.940Z,100506
2018-07-11T18:31:45.790Z,100509
2018-07-11T18:34:14.656Z,100508
2018-07-11T18:36:43.505Z,100507
2018-07-11T18:39:12.346Z,100497
2018-07-11T18:41:41.204Z,100502
2018-07-11T18:44:10.043Z,100498
2018-07-11T18:46:38.885Z,100498
2018-07-11T18:49:07.717Z,100505
2018-07-11T18:51:36.550Z,100499
2018-07-11T18:54:05.414Z,100498
2018-07-11T18:56:34.249Z,100497
2018-07-11T18:59:03.107Z,100494
2018-07-11T19:01:31.950Z,100498
2018-07-11T19:04:01.597Z,100496
2018-07-11T19:06:30.795Z,100504
2018-07-11T19:09:00.044Z,100496
2018-07-11T19:11:28.890Z,100500
2018-07-11T19:13:57.736Z,100497
2018-07-11T19:16:27.354Z,100502
2018-07-11T19:18:56.180Z,100504
2018-07-11T19:21:25.012Z,100511
2018-07-11T19:23:53.879Z,100514
2018-07-11T19:26:22.713Z,100507
2018-07-11T19:28:51.595Z,100511
2018-07-11T19:31:20.427Z,100512
2018-07-11T19:33:49.276Z,100508
2018-07-11T19:36:18.875Z,100503
2018-07-11T19:38:48.461Z,100509
2018-07-11T19:41:17.320Z,100523
2018-07-11T19:43:46.204Z,100518
2018-07-11T19:46:15.050Z,100516
2018-07-11T19:48:43.951Z,100509
2018-07-11T19:51:13.527Z,100520
2018-07-11T19:53:42.375Z,100520
2018-07-11T19:56:11.239Z,100524
2018-07-11T19:58:40.865Z,100520
2018-07-11T20:01:09.737Z,100513
2018-07-11T20:03:39.327Z,100511
2018-07-11T20:06:08.189Z,100517
2018-07-11T20:08:37.032Z,100519
2018-07-11T20:11:05.879Z,100525
2018-07-11T20:13:34.728Z,100524
2018-07-11T20:16:03.566Z,100524
2018-07-11T20:18:32.431Z,100519
2018-07-11T20:21:01.277Z,100528
2018-07-11T20:23:30.863Z,100528
2018-07-11T20:25:59.711Z,100525
2018-07-11T20:28:28.569Z,100530
2018-07-11T20:30:58.169Z,100529
2018-07-11T20:33:27.770Z,100533
2018-07-11T20:35:56.627Z,100530
2018-07-11T20:38:25.464Z,100530
2018-07-11T20:40:54.320Z,100531
2018-07-11T20:43:23.170Z,100533
2018-07-11T20:45:52.020Z,100527
2018-07-11T20:48:20.872Z,100529
2018-07-11T20:50:49.715Z,100522
2018-07-11T20:53:19.292Z,100524
2018-07-11T20:55:48.145Z,100523
2018-07-11T21:01:30.947Z,100517
2018-07-11T21:03:59.795Z,100513
2018-07-11T21:06:28.667Z,100517
2018-07-11T21:08:57.506Z,100518
2018-07-11T21:11:26.350Z,100523
2018-07-11T21:13:55.255Z,100519
2018-07-11T21:16:24.066Z,100516
2018-07-11T21:18:53.663Z,100525
2018-07-11T21:21:22.493Z,100523
2018-07-11T21:23:51.343Z,100519
2018-07-11T21:26:20.180Z,100527
2018-07-11T21:28:49.041Z,100519
2018-07-11T21:31:18.633Z,100528
2018-07-11T21:33:47.488Z,100523
2018-07-11T21:36:16.334Z,100523
2018-07-11T21:38:45.187Z,100526
2018-07-11T21:41:14.027Z,100532
2018-07-11T21:43:43.622Z,100530
2018-07-11T21:46:12.472Z,100523
2018-07-11T21:48:41.307Z,100520
2018-07-11T21:51:10.159Z,100520
2018-07-11T21:53:39.015Z,100516
2018-07-11T21:56:08.591Z,100518
2018-07-11T21:58:37.421Z,100519
2018-07-11T22:01:06.276Z,100517
2018-07-11T22:03:35.110Z,100511
2018-07-11T22:06:03.960Z,100509
2018-07-11T22:08:32.802Z,100501
2018-07-11T22:11:01.672Z,100503
2018-07-11T22:13:30.530Z,100511
2018-07-11T22:15:59.388Z,100510
2018-07-11T22:18:30.077Z,100511
2018-07-11T22:20:58.162Z,100506
2018-07-11T22:23:27.184Z,100509
2018-07-11T22:25:55.203Z,100500
2018-07-11T22:28:23.314Z,100510
2018-07-11T22:30:51.390Z,100502
2018-07-11T22:33:19.480Z,100503
2018-07-11T22:35:47.570Z,100500
2018-07-11T22:38:15.664Z,100498
2018-07-11T22:40:43.749Z,100510
2018-07-11T22:43:12.676Z,100512
2018-07-11T22:45:40.779Z,100510
2018-07-11T22:48:08.875Z,100509
2018-07-11T22:50:36.965Z,100506
2018-07-11T22:53:05.153Z,100513
2018-07-11T22:55:33.254Z,100502
2018-07-11T22:58:01.343Z,100505
2018-07-11T23:00:29.432Z,100512
2018-07-11T23:02:57.515Z,100502
2018-07-11T23:05:25.610Z,100500
2018-07-11T23:07:53.691Z,100502
2018-07-11T23:10:21.779Z,100500
2018-07-11T23:12:50.624Z,100498
2018-07-11T23:15:18.712Z,100498
2018-07-11T23:17:46.799Z,100499
2018-07-11T23:20:14.891Z,100493
2018-07-11T23:22:43.731Z,100499
2018-07-11T23:25:11.811Z,100494
2018-07-11T23:27:39.898Z,100493
2018-07-11T23:30:07.997Z,100503
2018-07-11T23:32:36.842Z,100492
2018-07-11T23:35:04.929Z,100492
2018-07-11T23:37:33.019Z,100515
2018-07-11T23:40:01.847Z,100506
2018-07-11T23:42:29.937Z,100504
2018-07-11T23:44:58.018Z,100495
2018-07-11T23:47:26.109Z,100502
2018-07-11T23:49:54.197Z,100497
2018-07-11T23:52:22.299Z,100507
2018-07-11T23:54:51.122Z,100505
2018-07-11T23:57:19.211Z,100504
2018-07-11T23:59:47.309Z,100507
